createdAt,value
2023-08-12T00:00:21.193Z,75.15
2023-08-12T00:05:20.437Z,75.15
2023-08-12T00:10:21.595Z,75.85
2023-08-12T00:15:22.704Z,77.68
2023-08-12T00:20:23.783Z,80.29
2023-08-12T00:25:24.900Z,79.29
2023-08-12T00:30:25.986Z,78.36
2023-08-12T00:35:27.072Z,77.42
2023-08-12T00:40:28.177Z,76.48
2023-08-12T00:45:29.403Z,74.85
2023-08-12T00:50:30.588Z,75.05
2023-08-12T00:55:31.771Z,74.95
2023-08-12T01:00:32.956Z,75.25
2023-08-12T01:05:34.017Z,75.89
2023-08-12T01:10:35.186Z,76.18
2023-08-12T01:15:36.366Z,76.08
2023-08-12T01:20:38.420Z,75.59
2023-08-12T01:25:37.525Z,75.78
2023-08-12T01:30:38.691Z,75.89
2023-08-12T01:35:40.746Z,76.22
2023-08-12T01:40:39.823Z,76.12
2023-08-12T01:45:40.903Z,76.12
2023-08-12T01:50:43.056Z,76.12
2023-08-12T01:55:43.431Z,76.45
2023-08-12T02:00:42.563Z,76.65
2023-08-12T02:05:43.622Z,76.45
2023-08-12T02:10:44.775Z,76.32
2023-08-12T02:15:49.899Z,76.26
2023-08-12T02:20:48.902Z,76.35
2023-08-12T02:25:48.112Z,78.39
2023-08-12T02:30:50.256Z,85.38
2023-08-12T02:35:49.360Z,88.31
2023-08-12T02:40:50.513Z,88.17
2023-08-12T02:45:51.683Z,88.27
2023-08-12T02:50:52.816Z,88.51
2023-08-12T02:55:54.960Z,88.81
2023-08-12T03:00:55.068Z,89.96
2023-08-12T03:05:55.139Z,89.96
2023-08-12T03:10:54.209Z,90.16
2023-08-12T03:15:55.268Z,89.86
2023-08-12T03:20:56.322Z,89.56
2023-08-12T03:25:58.369Z,89.62
2023-08-12T03:30:57.551Z,90.62
2023-08-12T03:35:58.677Z,91.77
2023-08-12T03:40:59.800Z,92.61
2023-08-12T03:46:00.873Z,92.37
2023-08-12T03:51:02.046Z,92.82
2023-08-12T03:56:03.135Z,92.92
2023-08-12T04:01:04.372Z,93.22
2023-08-12T04:06:05.572Z,93.12
2023-08-12T04:11:06.667Z,92.47
2023-08-12T04:16:07.866Z,92.88
2023-08-12T04:21:09.023Z,93.62
2023-08-12T04:26:10.095Z,93.82
2023-08-12T04:31:11.389Z,93.62
2023-08-12T04:36:12.597Z,93.32
2023-08-12T04:41:13.755Z,94.33
2023-08-12T04:46:14.873Z,94.13
2023-08-12T04:51:15.924Z,93.68
2023-08-12T04:56:17.015Z,92.97
2023-08-12T05:01:17.207Z,93.48
2023-08-12T05:06:20.236Z,93.03
2023-08-12T05:11:18.340Z,92.18
2023-08-12T05:16:19.506Z,91.44
2023-08-12T05:21:19.548Z,90.99
2023-08-12T05:26:21.719Z,89.75
2023-08-12T05:31:21.868Z,88.84
2023-08-12T05:36:21.912Z,87.96
2023-08-12T05:41:21.218Z,86.32
2023-08-12T05:46:23.290Z,83.93
2023-08-12T05:51:24.333Z,78.66
2023-08-12T05:56:23.500Z,76.62
2023-08-12T06:01:24.710Z,73.91
2023-08-12T06:06:25.834Z,73.05
2023-08-12T06:11:26.910Z,71.22
2023-08-12T06:16:28.017Z,70.42
2023-08-12T06:21:29.040Z,69.06
2023-08-12T06:26:30.194Z,68.80
2023-08-12T06:31:31.346Z,68.80
2023-08-12T06:36:33.377Z,68.27
2023-08-12T06:41:32.429Z,67.11
2023-08-12T06:46:33.581Z,66.38
2023-08-12T06:51:35.621Z,66.31
2023-08-12T06:56:39.146Z,66.31
2023-08-12T07:01:35.186Z,66.61
2023-08-12T07:06:34.334Z,66.22
2023-08-12T07:11:37.372Z,65.78
2023-08-12T07:16:36.526Z,65.89
2023-08-12T07:21:38.606Z,66.18
2023-08-12T07:26:37.683Z,66.65
2023-08-12T07:31:38.748Z,67.64
2023-08-12T07:36:39.853Z,66.02
2023-08-12T07:41:40.905Z,66.39
2023-08-12T07:46:44.035Z,66.35
2023-08-12T07:51:43.066Z,66.52
2023-08-12T07:56:44.272Z,64.94
2023-08-12T08:01:45.325Z,66.02
2023-08-12T08:06:51.819Z,65.83
2023-08-12T08:11:46.841Z,66.52
2023-08-12T08:16:47.952Z,65.53
2023-08-12T08:21:50.002Z,66.49
2023-08-12T08:26:49.106Z,64.67
2023-08-12T08:31:50.153Z,63.23
2023-08-12T08:36:53.252Z,61.19
2023-08-12T08:41:53.256Z,60.02
2023-08-12T08:46:52.466Z,61.88
2023-08-12T08:51:53.534Z,64.90
2023-08-12T08:56:58.424Z,64.97
2023-08-12T09:01:55.838Z,63.75
2023-08-12T09:06:55.453Z,64.15
2023-08-12T09:11:54.519Z,62.84
2023-08-12T09:16:58.027Z,62.24
2023-08-12T09:21:56.188Z,63.27
2023-08-12T09:26:57.282Z,62.62
2023-08-12T09:31:57.363Z,61.63
2023-08-12T09:36:57.387Z,62.25
2023-08-12T09:41:56.568Z,62.18
2023-08-12T09:46:59.771Z,63.07
2023-08-12T09:51:59.114Z,61.76
2023-08-12T09:57:00.162Z,60.61
2023-08-12T10:02:01.198Z,61.90
2023-08-12T10:07:02.245Z,64.09
2023-08-12T10:12:05.434Z,64.09
2023-08-12T10:17:06.975Z,65.74
2023-08-12T10:22:04.097Z,63.80
2023-08-12T10:27:05.179Z,64.56
2023-08-12T10:32:08.239Z,63.08
2023-08-12T10:37:08.300Z,65.80
2023-08-12T10:42:07.352Z,66.72
2023-08-12T10:47:08.478Z,67.61
2023-08-12T10:52:09.554Z,69.09
2023-08-12T10:57:10.593Z,67.51
2023-08-12T11:02:11.942Z,67.55
2023-08-12T11:07:14.077Z,65.61
2023-08-12T11:12:14.361Z,67.41
2023-08-12T11:17:14.583Z,65.22
2023-08-12T11:22:14.097Z,64.86
2023-08-12T11:27:13.404Z,65.97
2023-08-12T11:32:16.421Z,67.25
2023-08-12T11:37:15.481Z,68.20
2023-08-12T11:42:16.535Z,66.99
2023-08-12T11:47:17.614Z,70.60
2023-08-12T11:52:18.701Z,69.88
2023-08-12T11:57:20.766Z,70.80
2023-08-12T12:02:20.017Z,67.68
2023-08-12T12:07:23.093Z,66.79
2023-08-12T12:12:22.200Z,66.20
2023-08-12T12:17:23.268Z,65.70
2023-08-12T12:22:25.341Z,65.67
2023-08-12T12:27:25.396Z,65.19
2023-08-12T12:32:24.507Z,64.40
2023-08-12T12:37:27.436Z,66.23
2023-08-12T12:42:27.477Z,65.47
2023-08-12T12:47:27.507Z,66.16
2023-08-12T12:52:26.566Z,67.25
2023-08-12T12:57:29.633Z,66.06
2023-08-12T13:02:29.822Z,67.25
2023-08-12T13:07:29.820Z,67.15
2023-08-12T13:12:28.889Z,66.46
2023-08-12T13:17:30.011Z,65.54
2023-08-12T13:22:31.042Z,65.14
2023-08-12T13:27:33.101Z,65.83
2023-08-12T13:32:32.196Z,66.06
2023-08-12T13:37:33.276Z,66.66
2023-08-12T13:42:36.323Z,64.39
2023-08-12T13:47:35.409Z,65.80
2023-08-12T13:52:37.425Z,63.12
2023-08-12T13:57:36.581Z,64.26
2023-08-12T14:02:37.724Z,63.94
2023-08-12T14:07:40.732Z,64.29
2023-08-12T14:12:40.766Z,64.16
2023-08-12T14:17:40.876Z,64.56
2023-08-12T14:22:40.908Z,64.09
2023-08-12T14:27:39.980Z,63.70
2023-08-12T14:32:41.096Z,64.91
2023-08-12T14:37:44.113Z,64.85
2023-08-12T14:42:43.160Z,64.06
2023-08-12T14:47:44.310Z,64.65
2023-08-12T14:52:45.293Z,63.60
2023-08-12T14:57:46.376Z,62.55
2023-08-12T15:02:48.563Z,63.84
2023-08-12T15:07:47.749Z,62.16
2023-08-12T15:12:48.785Z,63.21
2023-08-12T15:17:51.960Z,62.14
2023-08-12T15:22:51.000Z,61.32
2023-08-12T15:27:52.106Z,59.42
2023-08-12T15:32:53.248Z,59.99
2023-08-12T15:37:54.282Z,59.69
2023-08-12T15:42:55.331Z,59.16
2023-08-12T15:47:56.435Z,59.79
2023-08-12T15:52:59.497Z,54.60
2023-08-12T15:57:58.521Z,57.11
2023-08-12T16:03:00.663Z,56.30
2023-08-12T16:08:01.700Z,58.86
2023-08-12T16:13:02.756Z,57.01
2023-08-12T16:18:02.819Z,57.03
2023-08-12T16:23:02.860Z,60.44
2023-08-12T16:28:01.949Z,60.60
2023-08-12T16:33:03.061Z,60.41
2023-08-12T16:38:05.320Z,65.35
2023-08-12T16:43:05.396Z,62.93
2023-08-12T16:48:04.526Z,66.60
2023-08-12T16:53:10.870Z,66.82
2023-08-12T16:58:10.166Z,68.53
2023-08-12T17:03:08.281Z,69.12
2023-08-12T17:08:10.347Z,69.35
2023-08-12T17:13:07.435Z,66.30
2023-08-12T17:18:08.506Z,66.59
2023-08-12T17:23:09.526Z,66.59
2023-08-12T17:28:11.613Z,68.10
2023-08-12T17:33:10.713Z,67.51
2023-08-12T17:38:11.772Z,67.51
2023-08-12T17:43:11.824Z,64.78
2023-08-12T17:48:13.864Z,65.77
2023-08-12T17:53:12.988Z,62.21
2023-08-12T17:58:14.026Z,62.51
2023-08-12T18:03:16.163Z,63.89
2023-08-12T18:08:16.349Z,63.00
2023-08-12T18:13:15.463Z,62.01
2023-08-12T18:18:17.549Z,61.35
2023-08-12T18:23:16.615Z,61.85
2023-08-12T18:28:18.744Z,62.24
2023-08-12T18:33:18.863Z,65.53
2023-08-12T18:38:18.985Z,67.05
2023-08-12T18:43:18.239Z,67.84
2023-08-12T18:48:20.499Z,66.78
2023-08-12T18:53:19.722Z,68.73
2023-08-12T18:58:20.986Z,69.19
2023-08-12T19:03:22.146Z,68.50
2023-08-12T19:08:24.339Z,68.99
2023-08-12T19:13:23.399Z,68.80
2023-08-12T19:18:26.483Z,67.74
2023-08-12T19:23:27.563Z,69.02
2023-08-12T19:28:28.808Z,70.15
2023-08-12T19:33:28.304Z,69.98
2023-08-12T19:38:27.877Z,70.42
2023-08-12T19:43:27.462Z,71.11
2023-08-12T19:48:27.019Z,71.70
2023-08-12T19:53:27.554Z,72.14
2023-08-12T19:58:27.132Z,72.24
2023-08-12T20:03:26.701Z,72.73
2023-08-12T20:08:27.211Z,72.83
2023-08-12T20:13:26.685Z,72.44
2023-08-12T20:18:29.563Z,71.74
2023-08-12T20:23:28.110Z,71.94
2023-08-12T20:28:27.599Z,72.33
2023-08-12T20:33:29.186Z,72.63
2023-08-12T20:38:30.763Z,73.07
2023-08-12T20:43:29.365Z,73.27
2023-08-12T20:48:30.935Z,73.99
2023-08-12T20:53:28.532Z,74.59
2023-08-12T20:58:28.894Z,75.32
2023-08-12T21:03:28.118Z,75.52
2023-08-12T21:08:29.160Z,76.06
2023-08-12T21:13:30.289Z,75.95
2023-08-12T21:18:32.326Z,76.15
2023-08-12T21:23:32.456Z,76.06
2023-08-12T21:28:32.488Z,76.25
2023-08-12T21:33:31.561Z,76.75
2023-08-12T21:38:33.642Z,77.34
2023-08-12T21:43:32.737Z,77.45
2023-08-12T21:48:35.787Z,78.18
2023-08-12T21:53:35.893Z,79.41
2023-08-12T21:58:35.976Z,79.21
2023-08-12T22:03:35.071Z,79.11
2023-08-12T22:08:37.137Z,79.21
2023-08-12T22:13:36.210Z,79.51
2023-08-12T22:18:40.293Z,80.11
2023-08-12T22:23:38.397Z,80.05
2023-08-12T22:28:37.440Z,79.94
2023-08-12T22:33:39.519Z,80.24
2023-08-12T22:38:39.580Z,80.44
2023-08-12T22:43:39.642Z,80.68
2023-08-12T22:48:38.695Z,81.18
2023-08-12T22:53:40.864Z,81.38
2023-08-12T22:58:40.908Z,81.88
2023-08-12T23:03:39.963Z,81.04
2023-08-12T23:08:41.021Z,80.54
2023-08-12T23:13:45.960Z,80.44
2023-08-12T23:18:44.016Z,79.94
2023-08-12T23:23:43.112Z,79.41
2023-08-12T23:28:44.188Z,79.35
2023-08-12T23:33:46.292Z,79.75
2023-08-12T23:38:46.427Z,79.65
2023-08-12T23:43:45.530Z,79.58
2023-08-12T23:48:46.568Z,79.65
2023-08-12T23:53:47.641Z,80.05
2023-08-12T23:58:48.747Z,80.29
